Time;durP1;ratioP1;P1;durP2;ratioP2;P2;SDS_P1;SDS_P2;PMS_P1;PMS_P2;Temp;Humidity;BMP_temperature;BMP_pressure;BME280_temperature;BME280_humidity;BME280_pressure;Samples;Min_cycle;Max_cycle;Signal;HPM_P1;HPM_P2
2023/08/25 05:12:59;;;;;;;;;;;;;;;8.73;100.00;99057.72;5349632;23;19926;-82
2023/08/25 05:15:24;;;;;;;;;;;;;;;8.66;100.00;99061.56;4990215;28;19926;-81
2023/08/25 05:17:50;;;;;;;;;;;;;;;8.71;100.00;99051.66;4973880;28;20325;-81
2023/08/25 05:20:17;;;;;;;;;;;;;;;8.77;100.00;99043.44;4975295;28;19922;-80
2023/08/25 05:22:43;;;;;;;;;;;;;;;8.76;100.00;99040.88;4973031;28;19922;-82
2023/08/25 05:25:08;;;;;;;;;;;;;;;8.70;100.00;99073.72;4975062;28;19922;-82
2023/08/25 05:27:33;;;;;;;;;;;;;;;8.73;100.00;99070.94;4973808;28;19921;-83
2023/08/25 05:29:58;;;;;;;;;;;;;;;8.72;100.00;99058.66;4974973;28;19985;-82
2023/08/25 05:32:24;;;;;;;;;;;;;;;8.72;100.00;99058.66;4975092;28;20012;-82
2023/08/25 05:34:49;;;;;;;;;;;;;;;8.80;100.00;99040.66;4974844;28;19920;-84
2023/08/25 05:37:14;;;;;;;;;;;;;;;8.78;100.00;99066.28;4974817;28;19929;-82
2023/08/25 05:39:39;;;;;;;;;;;;;;;9.30;100.00;99065.56;4974689;28;19920;-81
2023/08/25 05:42:05;;;;;;;;;;;;;;;9.74;100.00;99051.91;4973474;28;19922;-81
2023/08/25 05:44:30;;;;;;;;;;;;;;;9.91;100.00;99074.88;4974513;28;19918;-82
2023/08/25 05:46:55;;;;;;;;;;;;;;;9.37;100.00;99066.97;4974620;28;19921;-83
2023/08/25 05:49:20;;;;;;;;;;;;;;;9.47;100.00;99059.44;4974606;28;19925;-83
2023/08/25 05:51:46;;;;;;;;;;;;;;;9.84;100.00;99054.94;4974504;28;19918;-82
2023/08/25 05:54:11;;;;;;;;;;;;;;;10.07;100.00;99039.66;4974386;28;20013;-82
2023/08/25 05:56:36;;;;;;;;;;;;;;;9.48;100.00;99045.31;4971980;28;20377;-81
2023/08/25 05:59:01;;;;;;;;;;;;;;;9.20;100.00;99043.16;4974424;28;20284;-82
2023/08/25 06:01:27;;;;;;;;;;;;;;;9.05;100.00;99031.56;4989229;28;20296;-80
2023/08/25 06:03:52;;;;;;;;;;;;;;;9.01;100.00;99022.06;4974283;28;19945;-80
2023/08/25 06:06:17;;;;;;;;;;;;;;;8.93;100.00;99013.66;4974363;28;19914;-80
2023/08/25 06:08:42;;;;;;;;;;;;;;;8.87;100.00;99006.88;4973906;28;19919;-80
2023/08/25 06:11:08;;;;;;;;;;;;;;;8.85;100.00;98988.44;4973024;28;20383;-81
2023/08/25 06:13:33;;;;;;;;;;;;;;;8.90;100.00;98997.03;4966258;28;19965;-81
2023/08/25 06:15:58;;;;;;;;;;;;;;;8.88;100.00;99006.78;4972778;28;19954;-80
2023/08/25 06:18:24;;;;;;;;;;;;;;;8.86;100.00;99029.78;4974121;28;19922;-81
2023/08/25 06:20:50;;;;;;;;;;;;;;;8.88;100.00;99045.56;4972677;28;19918;-81
2023/08/25 06:23:15;;;;;;;;;;;;;;;8.77;100.00;99059.28;4972697;28;19918;-81
2023/08/25 06:25:40;;;;;;;;;;;;;;;8.80;100.00;99048.56;4973920;28;20278;-81
2023/08/25 06:28:06;;;;;;;;;;;;;;;8.79;100.00;99041.59;4972750;28;19925;-81
2023/08/25 06:30:32;;;;;;;;;;;;;;;8.74;100.00;99051.50;4973892;28;20355;-81
2023/08/25 06:32:58;;;;;;;;;;;;;;;8.77;100.00;99048.72;4972485;28;20005;-81
2023/08/25 06:35:23;;;;;;;;;;;;;;;8.93;100.00;99048.84;4972620;28;20017;-81
2023/08/25 06:37:49;;;;;;;;;;;;;;;9.56;100.00;99039.63;4972398;28;20411;-81
2023/08/25 06:40:14;;;;;;;;;;;;;;;9.89;100.00;99038.81;4988537;28;20329;-81
2023/08/25 06:42:40;;;;;;;;;;;;;;;9.71;100.00;99057.34;4970941;28;19922;-81
2023/08/25 06:45:05;;;;;;;;;;;;;;;9.31;100.00;99040.84;4973660;28;19922;-81
2023/08/25 06:47:31;;;;;;;;;;;;;;;9.07;100.00;99030.53;4973735;28;19918;-81
2023/08/25 06:49:56;;;;;;;;;;;;;;;9.01;100.00;99038.75;4973587;28;20396;-80
2023/08/25 06:52:22;;;;;;;;;;;;;;;8.92;100.00;99020.72;4972237;28;19929;-81
2023/08/25 06:54:47;;;;;;;;;;;;;;;8.93;100.00;99008.38;4972203;28;19918;-81
2023/08/25 06:57:12;;;;;;;;;;;;;;;8.82;100.00;99001.84;4970958;28;20061;-81
2023/08/25 06:59:38;;;;;;;;;;;;;;;8.80;100.00;99013.38;4973542;28;19934;-81
2023/08/25 07:40:19;;;;;;;;;;;;;;;8.97;100.00;99033.72;5543707;23;19934;-83
2023/08/25 07:42:44;;;;;;;;;;;;;;;8.83;100.00;99021.16;4976849;28;19926;-82
2023/08/25 07:45:10;;;;;;;;;;;;;;;8.81;100.00;99034.44;4991921;28;19942;-82
2023/08/25 07:47:35;;;;;;;;;;;;;;;8.84;100.00;99050.16;4976812;28;19918;-83
2023/08/25 07:50:03;;;;;;;;;;;;;;;9.50;100.00;99047.88;4976828;28;19922;-83
2023/08/25 07:52:28;;;;;;;;;;;;;;;9.90;100.00;99067.84;4976651;28;19918;-83
2023/08/25 07:54:54;;;;;;;;;;;;;;;10.00;100.00;99073.53;4975732;28;19922;-83
2023/08/25 07:57:19;;;;;;;;;;;;;;;9.66;100.00;99063.81;4976620;28;20324;-83
2023/08/25 07:59:44;;;;;;;;;;;;;;;10.06;100.00;99062.63;4991568;28;19929;-83
2023/08/25 08:02:10;;;;;;;;;;;;;;;10.23;100.00;99056.44;4976592;28;19973;-83
2023/08/25 08:04:36;;;;;;;;;;;;;;;9.70;100.00;99054.78;4976502;28;19929;-83
2023/08/25 08:07:02;;;;;;;;;;;;;;;9.35;100.00;99054.75;4975581;28;20033;-83
2023/08/25 08:09:27;;;;;;;;;;;;;;;9.16;100.00;99052.16;4975012;28;19961;-89
2023/08/25 08:11:52;;;;;;;;;;;;;;;9.21;100.00;99055.47;4991396;28;19964;-83
2023/08/25 08:14:17;;;;;;;;;;;;;;;9.75;100.00;99055.44;4975137;28;20570;-83
2023/08/25 08:16:43;;;;;;;;;;;;;;;10.09;100.00;99048.38;4991348;28;19933;-83
2023/08/25 08:19:10;;;;;;;;;;;;;;;10.23;100.00;99048.50;4976298;28;19925;-83
2023/08/25 08:21:35;;;;;;;;;;;;;;;9.72;100.00;99056.44;4975413;28;19925;-83
2023/08/25 08:24:00;;;;;;;;;;;;;;;10.21;100.00;99050.38;4975578;28;19918;-83
2023/08/25 08:26:25;;;;;;;;;;;;;;;10.39;100.00;99037.09;4975611;28;19922;-83
2023/08/25 08:28:51;;;;;;;;;;;;;;;10.21;100.00;99033.63;4974852;28;20558;-83
2023/08/25 08:31:18;;;;;;;;;;;;;;;10.05;100.00;99030.94;4976087;28;19922;-84
2023/08/25 08:33:44;;;;;;;;;;;;;;;10.44;100.00;99045.69;4975999;28;19922;-84
2023/08/25 08:36:09;;;;;;;;;;;;;;;10.58;100.00;99034.31;4976090;28;19918;-84
2023/08/25 08:38:34;;;;;;;;;;;;;;;9.97;100.00;99033.97;4975853;28;19925;-84
2023/08/25 08:41:01;;;;;;;;;;;;;;;10.27;100.00;99036.78;4974579;28;19949;-84
2023/08/25 08:43:26;;;;;;;;;;;;;;;10.51;100.00;99037.31;4974980;28;20266;-85
2023/08/25 08:45:53;;;;;;;;;;;;;;;10.68;100.00;99040.84;4975740;28;19918;-84
2023/08/25 08:48:20;;;;;;;;;;;;;;;10.12;100.00;99056.16;4975909;28;19930;-84
2023/08/25 08:50:46;;;;;;;;;;;;;;;10.49;100.00;99055.06;4975584;28;20035;-84
2023/08/25 08:53:13;;;;;;;;;;;;;;;10.66;100.00;99059.47;4975620;28;20385;-84
2023/08/25 08:55:38;;;;;;;;;;;;;;;10.20;100.00;99061.91;4974264;28;20022;-84
2023/08/25 08:58:04;;;;;;;;;;;;;;;10.29;100.00;99066.72;4975582;28;20014;-84
2023/08/25 09:00:30;;;;;;;;;;;;;;;10.56;100.00;99074.13;4975558;28;20506;-84
2023/08/25 09:02:57;;;;;;;;;;;;;;;10.69;100.00;99069.03;4975269;28;20453;-83
2023/08/25 09:05:27;;;;;;;;;;;;;;;10.30;100.00;99073.72;4975438;28;20013;-86
2023/08/25 09:07:57;;;;;;;;;;;;;;;10.60;100.00;99072.19;4975185;28;19960;-84
2023/08/25 09:10:26;;;;;;;;;;;;;;;10.78;100.00;99084.41;4974403;28;20281;-84
2023/08/25 09:12:52;;;;;;;;;;;;;;;10.10;100.00;99084.47;4975329;28;19914;-84
2023/08/25 09:15:24;;;;;;;;;;;;;;;10.40;100.00;99081.19;4975367;28;19973;-84
2023/08/25 09:17:52;;;;;;;;;;;;;;;10.66;100.00;99082.47;4974638;28;19914;-84
2023/08/25 09:20:18;;;;;;;;;;;;;;;10.51;100.00;99076.19;4975091;28;19934;-84
2023/08/25 09:22:52;;;;;;;;;;;;;;;10.25;100.00;99062.50;4975267;28;20008;-84
2023/08/25 09:25:20;;;;;;;;;;;;;;;10.61;100.00;99064.16;4988765;28;19925;-85
2023/08/25 09:27:45;;;;;;;;;;;;;;;10.70;100.00;99053.03;4974865;28;19925;-84
2023/08/25 09:30:11;;;;;;;;;;;;;;;10.12;100.00;99042.94;4975036;28;19926;-84
2023/08/25 09:32:36;;;;;;;;;;;;;;;10.53;100.00;99050.50;4975072;28;19996;-84
2023/08/25 09:35:12;;;;;;;;;;;;;;;10.74;100.00;99053.75;4975122;28;20030;-84
2023/08/25 09:37:43;;;;;;;;;;;;;;;10.29;100.00;99034.94;4974728;28;19918;-84
2023/08/25 09:40:12;;;;;;;;;;;;;;;10.43;100.00;99039.50;4973593;28;19936;-84
2023/08/25 09:42:37;;;;;;;;;;;;;;;10.78;100.00;99060.56;4974558;28;19922;-84
2023/08/25 09:45:03;;;;;;;;;;;;;;;10.84;100.00;99059.38;4974297;28;19922;-84
2023/08/25 09:47:28;;;;;;;;;;;;;;;10.52;100.00;99062.00;4974375;28;19921;-84
2023/08/25 09:49:54;;;;;;;;;;;;;;;10.83;100.00;99068.28;4973377;28;20431;-84
2023/08/25 09:52:25;;;;;;;;;;;;;;;10.93;100.00;99064.19;4974700;28;20009;-84
2023/08/25 09:54:50;;;;;;;;;;;;;;;10.47;100.00;99062.25;4973182;28;20384;-84
2023/08/25 09:57:15;;;;;;;;;;;;;;;10.81;100.00;99070.16;4974524;28;19926;-84
2023/08/25 09:59:41;;;;;;;;;;;;;;;10.96;100.00;99077.28;4973593;28;19914;-87
2023/08/25 10:02:08;;;;;;;;;;;;;;;10.56;100.00;99071.47;4974261;28;20004;-83
2023/08/25 10:04:34;;;;;;;;;;;;;;;10.87;100.00;99088.38;4973815;28;19926;-85
2023/08/25 10:07:00;;;;;;;;;;;;;;;11.11;100.00;99087.97;4974574;28;20384;-88
2023/08/25 10:09:25;;;;;;;;;;;;;;;11.13;100.00;99083.41;4971813;28;20740;-84
2023/08/25 10:11:52;;;;;;;;;;;;;;;10.82;100.00;99077.19;4974211;28;19996;-84
2023/08/25 10:14:22;;;;;;;;;;;;;;;11.09;100.00;99078.28;4974132;28;19922;-84
2023/08/25 10:16:49;;;;;;;;;;;;;;;11.30;100.00;99077.16;4974043;28;19962;-84
2023/08/25 10:19:15;;;;;;;;;;;;;;;10.91;100.00;99068.69;4973517;28;19922;-84
2023/08/25 10:21:41;;;;;;;;;;;;;;;11.18;100.00;99070.75;4973861;28;19918;-84
2023/08/25 10:24:08;;;;;;;;;;;;;;;11.45;100.00;99055.91;4973697;28;19973;-84
2023/08/25 10:26:34;;;;;;;;;;;;;;;11.01;100.00;99048.69;4972279;28;19921;-84
2023/08/25 10:28:59;;;;;;;;;;;;;;;11.24;100.00;99051.84;4988728;28;20324;-84
2023/08/25 10:31:25;;;;;;;;;;;;;;;11.36;100.00;99056.44;4973909;28;19926;-83
2023/08/25 10:33:51;;;;;;;;;;;;;;;11.26;100.00;99052.59;4973702;28;20292;-84
2023/08/25 10:36:18;;;;;;;;;;;;;;;11.08;100.00;99047.41;4988755;28;19922;-83
2023/08/25 10:38:59;;;;;;;;;;;;;;;11.36;100.00;99053.78;4988606;28;19972;-84
2023/08/25 10:41:24;;;;;;;;;;;;;;;11.45;100.00;99057.69;4987111;28;19926;-82
2023/08/25 10:43:51;;;;;;;;;;;;;;;11.10;100.00;99065.88;4988278;28;20304;-83
2023/08/25 10:46:17;;;;;;;;;;;;;;;11.28;100.00;99074.59;4972963;28;19945;-84
2023/08/25 10:48:42;;;;;;;;;;;;;;;11.53;100.00;99066.06;4972438;28;19922;-83
2023/08/25 10:51:09;;;;;;;;;;;;;;;11.16;100.00;99072.63;4973657;28;19926;-84
2023/08/25 10:53:38;;;;;;;;;;;;;;;11.42;100.00;99069.34;4988534;28;19925;-84
2023/08/25 10:56:20;;;;;;;;;;;;;;;11.55;100.00;99076.59;4970091;28;20365;-83
2023/08/25 10:58:56;;;;;;;;;;;;;;;11.06;100.00;99075.81;4972628;28;19980;-83
2023/08/25 11:01:25;;;;;;;;;;;;;;;11.27;100.00;99068.41;4973352;28;19922;-83
2023/08/25 11:04:04;;;;;;;;;;;;;;;11.48;100.00;99080.56;4973422;28;19918;-83
2023/08/25 11:06:55;;;;;;;;;;;;;;;11.27;100.00;99078.19;4973353;28;19950;-83
2023/08/25 11:09:30;;;;;;;;;;;;;;;11.34;100.00;99082.19;4944487;28;20017;-84
2023/08/25 11:12:06;;;;;;;;;;;;;;;11.56;100.00;99073.00;4988162;28;19924;-83
2023/08/25 11:14:35;;;;;;;;;;;;;;;11.14;100.00;99072.72;4973083;28;20490;-83
2023/08/25 11:17:02;;;;;;;;;;;;;;;11.32;100.00;99064.66;4973155;28;19918;-83
2023/08/25 11:19:27;;;;;;;;;;;;;;;11.49;100.00;99076.94;4971190;28;19918;-83
2023/08/25 11:22:01;;;;;;;;;;;;;;;11.29;100.00;99068.34;4973381;28;20369;-83
2023/08/25 11:24:27;;;;;;;;;;;;;;;11.24;100.00;99083.66;4970825;28;19922;-83
2023/08/25 11:26:52;;;;;;;;;;;;;;;11.47;100.00;99079.66;4973138;28;19922;-83
2023/08/25 11:29:18;;;;;;;;;;;;;;;11.49;100.00;99075.16;4972506;28;19965;-83
2023/08/25 11:31:44;;;;;;;;;;;;;;;11.23;100.00;99079.28;4972974;28;19926;-83
2023/08/25 11:34:09;;;;;;;;;;;;;;;11.47;100.00;99062.91;4973310;28;19961;-83
2023/08/25 11:36:34;;;;;;;;;;;;;;;11.50;100.00;99058.28;4973159;28;20009;-82
2023/08/25 11:39:00;;;;;;;;;;;;;;;11.07;100.00;99058.09;4973128;28;19922;-83
2023/08/25 11:41:25;;;;;;;;;;;;;;;11.39;100.00;99064.22;4986523;28;19929;-83
2023/08/25 11:43:50;;;;;;;;;;;;;;;11.54;100.00;99070.44;4973019;28;20401;-83
2023/08/25 11:46:16;;;;;;;;;;;;;;;11.24;100.00;99057.97;4973208;28;19918;-83
2023/08/25 11:48:41;;;;;;;;;;;;;;;11.31;100.00;99065.59;4973122;28;20013;-83
2023/08/25 11:51:13;;;;;;;;;;;;;;;11.48;100.00;99054.88;4972991;28;19918;-83
2023/08/25 11:53:40;;;;;;;;;;;;;;;11.47;100.00;99063.75;4973100;28;20005;-83
2023/08/25 11:56:05;;;;;;;;;;;;;;;11.20;100.00;99051.16;4970139;28;20439;-83
2023/08/25 11:58:31;;;;;;;;;;;;;;;11.45;100.00;99052.38;4972998;28;19922;-83
2023/08/25 12:01:14;;;;;;;;;;;;;;;11.52;100.00;99047.56;4972942;28;19918;-83
2023/08/25 12:03:57;;;;;;;;;;;;;;;11.20;100.00;99050.28;4972899;28;19924;-86
2023/08/25 12:06:22;;;;;;;;;;;;;;;11.45;100.00;99050.63;4971195;28;19969;-84
2023/08/25 12:08:48;;;;;;;;;;;;;;;11.54;100.00;99043.91;4975958;28;19958;-86
2023/08/25 12:11:13;;;;;;;;;;;;;;;11.17;100.00;99055.75;4973915;28;19929;-84
2023/08/25 12:13:43;;;;;;;;;;;;;;;11.38;100.00;99065.16;4976546;28;19918;-84
2023/08/25 12:16:08;;;;;;;;;;;;;;;11.57;100.00;99049.03;4976511;28;20344;-84
2023/08/25 12:18:34;;;;;;;;;;;;;;;11.61;100.00;99047.03;4976386;28;19922;-83
2023/08/25 12:21:03;;;;;;;;;;;;;;;11.18;100.00;99047.72;4975966;28;19925;-83
2023/08/25 12:23:35;;;;;;;;;;;;;;;11.54;100.00;99064.28;4976107;28;19925;-83
2023/08/25 12:26:02;;;;;;;;;;;;;;;11.64;100.00;99062.78;4989707;28;19982;-82
2023/08/25 12:28:27;;;;;;;;;;;;;;;11.32;100.00;99044.28;4976199;28;19929;-84
2023/08/25 12:30:52;;;;;;;;;;;;;;;11.34;100.00;99046.84;4975200;28;20289;-82
2023/08/25 12:33:17;;;;;;;;;;;;;;;11.51;100.00;99048.53;4976040;28;20005;-84
2023/08/25 12:35:43;;;;;;;;;;;;;;;11.61;100.00;99060.31;4975302;28;19922;-84
2023/08/25 12:38:08;;;;;;;;;;;;;;;11.29;100.00;99055.06;4975843;28;19969;-83
2023/08/25 12:40:33;;;;;;;;;;;;;;;11.45;100.00;99045.31;4974538;28;19929;-87
2023/08/25 12:42:58;;;;;;;;;;;;;;;11.67;100.00;99048.50;4975697;28;19918;-87
2023/08/25 12:45:24;;;;;;;;;;;;;;;11.58;100.00;99044.56;4974748;28;20365;-87
2023/08/25 12:47:50;;;;;;;;;;;;;;;11.25;100.00;99037.66;4975755;28;19914;-87
2023/08/25 12:50:15;;;;;;;;;;;;;;;11.50;100.00;99038.88;4990708;28;19922;-82
2023/08/25 12:52:40;;;;;;;;;;;;;;;11.59;100.00;99035.66;4990523;28;20428;-83
2023/08/25 12:55:10;;;;;;;;;;;;;;;11.02;100.00;99028.34;4989034;28;19922;-84
2023/08/25 12:57:35;;;;;;;;;;;;;;;11.29;100.00;99033.84;4974400;28;19918;-83
2023/08/25 13:00:02;;;;;;;;;;;;;;;11.49;100.00;99018.56;4971263;28;19945;-83
2023/08/25 13:02:28;;;;;;;;;;;;;;;11.40;100.00;99027.94;4975572;28;19929;-83
2023/08/25 13:04:53;;;;;;;;;;;;;;;11.29;100.00;99030.34;4971349;28;19922;-85
2023/08/25 13:07:20;;;;;;;;;;;;;;;11.51;100.00;99022.84;4974064;28;20006;-83
2023/08/25 13:09:45;;;;;;;;;;;;;;;11.59;100.00;99014.44;4971919;28;20292;-83
2023/08/25 13:12:10;;;;;;;;;;;;;;;11.12;100.00;99020.72;4984277;28;19922;-83
2023/08/25 13:14:35;;;;;;;;;;;;;;;11.45;100.00;99010.81;4974033;28;19924;-83
2023/08/25 13:17:01;;;;;;;;;;;;;;;11.51;100.00;99006.09;4973934;28;20411;-89
2023/08/25 13:19:26;;;;;;;;;;;;;;;11.09;100.00;99012.00;4989391;28;20306;-84
2023/08/25 13:21:51;;;;;;;;;;;;;;;11.22;100.00;99006.84;4990075;28;19927;-84
2023/08/25 13:24:16;;;;;;;;;;;;;;;11.43;100.00;99002.06;4973757;28;19922;-84
2023/08/25 13:26:41;;;;;;;;;;;;;;;11.44;100.00;99010.91;4973772;28;20262;-84
2023/08/25 13:29:07;;;;;;;;;;;;;;;11.15;100.00;99000.16;4975012;28;19918;-85
2023/08/25 13:31:32;;;;;;;;;;;;;;;11.45;100.00;99002.88;4974914;28;19941;-84
2023/08/25 13:33:57;;;;;;;;;;;;;;;11.52;100.00;98995.41;4974882;28;19918;-85
2023/08/25 13:36:23;;;;;;;;;;;;;;;11.13;100.00;98990.63;4973600;28;19925;-82
2023/08/25 13:38:48;;;;;;;;;;;;;;;11.40;100.00;98999.59;4989778;28;20347;-84
2023/08/25 13:41:13;;;;;;;;;;;;;;;11.54;100.00;98993.50;4988230;28;19929;-84
2023/08/25 13:43:39;;;;;;;;;;;;;;;11.63;100.00;98989.41;4974777;28;19922;-84
2023/08/25 13:46:04;;;;;;;;;;;;;;;11.36;100.00;99006.06;4973349;28;19918;-84
2023/08/25 13:48:30;;;;;;;;;;;;;;;11.59;100.00;98994.06;4974840;28;20004;-84
2023/08/25 13:50:55;;;;;;;;;;;;;;;11.74;100.00;98997.63;4973520;28;19918;-83
2023/08/25 13:53:20;;;;;;;;;;;;;;;11.25;100.00;99001.38;4973384;28;20262;-82
2023/08/25 13:55:46;;;;;;;;;;;;;;;11.45;100.00;99002.00;4971860;28;19922;-83
2023/08/25 13:58:11;;;;;;;;;;;;;;;11.63;100.00;99011.53;4989387;28;19922;-84
2023/08/25 14:00:37;;;;;;;;;;;;;;;11.73;100.00;99011.81;4973044;28;19918;-84
2023/08/25 14:03:03;;;;;;;;;;;;;;;11.33;100.00;99000.94;4972990;28;19929;-85
2023/08/25 14:05:28;;;;;;;;;;;;;;;11.61;100.00;99021.34;4973130;28;19923;-84
2023/08/25 14:07:53;;;;;;;;;;;;;;;11.77;100.00;99008.03;4973041;28;19933;-83
2023/08/25 14:10:19;;;;;;;;;;;;;;;11.67;100.00;98992.78;4972857;28;20362;-84
2023/08/25 14:12:44;;;;;;;;;;;;;;;11.47;100.00;99007.22;4974342;28;20016;-84
2023/08/25 14:15:10;;;;;;;;;;;;;;;11.64;100.00;99015.03;4972053;28;19918;-83
2023/08/25 14:17:35;;;;;;;;;;;;;;;11.77;100.00;99004.53;4974239;28;20325;-84
2023/08/25 14:20:00;;;;;;;;;;;;;;;11.28;100.00;98995.03;4971792;28;20266;-84
2023/08/25 14:22:25;;;;;;;;;;;;;;;11.56;100.00;98994.25;4973324;28;20388;-84
2023/08/25 14:24:51;;;;;;;;;;;;;;;11.74;100.00;98992.31;4971505;28;19926;-84
2023/08/25 14:27:16;;;;;;;;;;;;;;;11.58;100.00;98999.47;4988811;28;19922;-83
2023/08/25 14:29:41;;;;;;;;;;;;;;;11.44;100.00;98995.84;4973860;28;19926;-84
2023/08/25 14:32:06;;;;;;;;;;;;;;;11.65;100.00;98998.16;4973964;28;19918;-84
2023/08/25 14:34:32;;;;;;;;;;;;;;;11.68;100.00;98990.03;4974099;28;20366;-84
2023/08/25 14:36:57;;;;;;;;;;;;;;;11.33;100.00;98986.78;4973812;28;19965;-84
2023/08/25 14:39:23;;;;;;;;;;;;;;;11.67;100.00;98990.97;4972375;28;19933;-83
2023/08/25 14:41:48;;;;;;;;;;;;;;;11.77;100.00;98976.19;4988370;28;19945;-83
2023/08/25 14:44:13;;;;;;;;;;;;;;;11.44;100.00;98979.91;4973625;28;19926;-83
2023/08/25 14:46:39;;;;;;;;;;;;;;;11.47;100.00;98972.72;4988386;28;19924;-84
2023/08/25 14:49:04;;;;;;;;;;;;;;;11.69;100.00;98972.28;4973585;28;19922;-83
2023/08/25 14:51:30;;;;;;;;;;;;;;;11.67;100.00;98969.72;4973716;28;20396;-84
2023/08/25 14:53:55;;;;;;;;;;;;;;;11.26;100.00;98981.00;4973504;28;20341;-84
2023/08/25 14:56:20;;;;;;;;;;;;;;;11.56;100.00;98986.28;4972104;28;19918;-83
2023/08/25 14:58:46;;;;;;;;;;;;;;;11.82;100.00;98995.34;4988396;28;20020;-83
2023/08/25 15:01:11;;;;;;;;;;;;;;;11.31;100.00;98986.03;4973200;28;19973;-82
2023/08/25 15:03:37;;;;;;;;;;;;;;;11.50;100.00;98983.16;4972063;28;20369;-84
2023/08/25 15:06:03;;;;;;;;;;;;;;;11.62;100.00;98993.88;4953399;28;19918;-84
2023/08/25 15:08:31;;;;;;;;;;;;;;;11.66;100.00;98991.06;4969749;28;19918;-84
2023/08/25 15:10:57;;;;;;;;;;;;;;;11.13;100.00;98985.31;4967967;28;19926;-83
2023/08/25 15:13:23;;;;;;;;;;;;;;;11.47;100.00;98981.53;4970817;28;19992;-83
2023/08/25 15:15:48;;;;;;;;;;;;;;;11.56;100.00;98982.78;4988135;28;19918;-84
2023/08/25 15:18:14;;;;;;;;;;;;;;;11.33;100.00;98998.28;4973317;28;19918;-83
2023/08/25 15:20:40;;;;;;;;;;;;;;;11.27;100.00;98990.66;4971302;28;19973;-91
2023/08/25 15:23:06;;;;;;;;;;;;;;;11.47;100.00;98999.25;4968671;28;19926;-83
2023/08/25 15:25:31;;;;;;;;;;;;;;;11.63;100.00;99002.69;4970438;28;19926;-84
2023/08/25 15:27:57;;;;;;;;;;;;;;;11.07;100.00;98995.34;4973238;28;19953;-84
2023/08/25 15:30:22;;;;;;;;;;;;;;;11.36;100.00;98997.22;4973043;28;19928;-83
2023/08/25 15:32:47;;;;;;;;;;;;;;;11.53;100.00;99001.53;4973202;28;19961;-85
2023/08/25 15:35:13;;;;;;;;;;;;;;;11.33;100.00;98995.63;4969380;28;19964;-86
2023/08/25 15:37:38;;;;;;;;;;;;;;;11.05;100.00;98989.25;4971587;28;20354;-83
2023/08/25 15:40:04;;;;;;;;;;;;;;;11.36;100.00;98983.97;4971319;28;19921;-83
2023/08/25 15:42:29;;;;;;;;;;;;;;;11.52;100.00;98991.88;4974411;28;19941;-90
2023/08/25 15:44:54;;;;;;;;;;;;;;;11.11;100.00;98993.34;4976058;28;20334;-85
2023/08/25 15:47:20;;;;;;;;;;;;;;;11.28;100.00;98989.75;4976846;28;19918;-85
2023/08/25 15:49:45;;;;;;;;;;;;;;;11.48;100.00;98988.53;4976911;28;19918;-85
2023/08/25 15:52:10;;;;;;;;;;;;;;;11.55;100.00;98981.06;4976799;28;19918;-87
2023/08/25 15:54:35;;;;;;;;;;;;;;;11.08;100.00;98978.47;4991339;28;20017;-84
2023/08/25 15:57:01;;;;;;;;;;;;;;;11.41;100.00;98979.25;4975880;28;19934;-85
2023/08/25 15:59:27;;;;;;;;;;;;;;;11.58;100.00;98999.47;4973680;28;20008;-85
2023/08/25 16:01:52;;;;;;;;;;;;;;;11.17;100.00;98981.53;4972689;28;20361;-84
2023/08/25 16:04:18;;;;;;;;;;;;;;;11.25;100.00;98979.31;4971143;28;19965;-84
2023/08/25 16:06:43;;;;;;;;;;;;;;;11.49;100.00;98981.44;4968842;28;20445;-85
2023/08/25 16:09:08;;;;;;;;;;;;;;;11.59;100.00;98975.50;4973484;28;19922;-85
2023/08/25 16:11:34;;;;;;;;;;;;;;;11.09;100.00;98974.88;4989573;28;20013;-85
2023/08/25 16:13:59;;;;;;;;;;;;;;;11.39;100.00;98971.41;4990414;28;20376;-85
2023/08/25 16:16:24;;;;;;;;;;;;;;;11.54;100.00;98984.69;4988560;28;19918;-84
2023/08/25 16:18:49;;;;;;;;;;;;;;;11.29;100.00;98985.28;4969966;28;19919;-85
2023/08/25 16:21:15;;;;;;;;;;;;;;;11.25;100.00;98985.47;4973061;28;19929;-85
2023/08/25 16:23:40;;;;;;;;;;;;;;;11.50;100.00;98991.13;4972617;28;19968;-85
2023/08/25 16:26:06;;;;;;;;;;;;;;;11.56;100.00;98999.56;4971631;28;19918;-84
2023/08/25 16:28:32;;;;;;;;;;;;;;;12.10;100.00;98988.38;4990978;28;19926;-85
2023/08/25 16:31:24;;;;;;;;;;;;;;;12.22;100.00;98986.78;4975958;28;19918;-92
2023/08/25 16:33:49;;;;;;;;;;;;;;;11.88;100.00;98991.44;4970151;28;19922;-85
2023/08/25 16:36:14;;;;;;;;;;;;;;;11.45;100.00;98981.66;4973853;28;19922;-85
2023/08/25 16:38:39;;;;;;;;;;;;;;;11.50;100.00;98972.53;4974473;28;20023;-85
2023/08/25 16:41:07;;;;;;;;;;;;;;;11.72;100.00;98966.81;4973745;28;19922;-86
2023/08/25 16:43:35;;;;;;;;;;;;;;;11.80;100.00;98967.19;4974823;28;19922;-91
2023/08/25 16:46:00;;;;;;;;;;;;;;;11.25;100.00;98958.94;4975012;28;20400;-86
2023/08/25 16:48:26;;;;;;;;;;;;;;;11.48;100.00;98959.38;4974503;28;19929;-86
2023/08/25 16:50:51;;;;;;;;;;;;;;;11.62;100.00;98947.94;4974945;28;19926;-85
2023/08/25 16:53:18;;;;;;;;;;;;;;;11.26;100.00;98938.56;4973946;28;19922;-86
2023/08/25 16:55:43;;;;;;;;;;;;;;;11.37;100.00;98922.03;4972004;28;19965;-85
2023/08/25 16:58:09;;;;;;;;;;;;;;;11.51;100.00;98918.56;4975707;28;19953;-85
2023/08/25 17:00:38;;;;;;;;;;;;;;;11.70;100.00;98919.13;4973350;28;19976;-85
2023/08/25 17:03:04;;;;;;;;;;;;;;;11.11;100.00;98919.13;4974498;28;20822;-85
2023/08/25 17:05:49;;;;;;;;;;;;;;;11.38;100.00;98910.47;4975093;28;19918;-85
2023/08/25 17:08:15;;;;;;;;;;;;;;;11.58;100.00;98907.47;4972840;28;20002;-85
2023/08/25 17:10:44;;;;;;;;;;;;;;;10.89;100.00;98895.66;4969599;28;20040;-86
2023/08/25 17:13:10;;;;;;;;;;;;;;;11.31;100.00;98894.06;4967695;28;19922;-86
2023/08/25 17:15:36;;;;;;;;;;;;;;;11.47;100.00;98909.06;4971391;28;20097;-86
2023/08/25 17:18:02;;;;;;;;;;;;;;;11.16;100.00;98916.19;4973878;28;19929;-95
2023/08/25 17:20:27;;;;;;;;;;;;;;;11.21;100.00;98940.66;4973922;28;20324;-84
2023/08/25 17:22:53;;;;;;;;;;;;;;;11.45;100.00;98941.84;4972624;28;20323;-85
2023/08/25 17:25:18;;;;;;;;;;;;;;;11.47;100.00;98943.53;4974042;28;19948;-88
2023/08/25 17:27:44;;;;;;;;;;;;;;;11.03;100.00;98938.13;4970852;28;19925;-83
2023/08/25 17:30:09;;;;;;;;;;;;;;;11.36;100.00;98944.19;4972895;28;20290;-85
2023/08/25 17:32:35;;;;;;;;;;;;;;;11.44;100.00;98934.84;4973434;28;20397;-85
2023/08/25 17:35:01;;;;;;;;;;;;;;;10.90;100.00;98931.84;4989919;28;19914;-85
2023/08/25 17:37:29;;;;;;;;;;;;;;;11.06;100.00;98948.56;4973767;28;20377;-86
2023/08/25 17:39:56;;;;;;;;;;;;;;;11.35;100.00;98959.25;4972776;28;20008;-86
2023/08/25 17:42:22;;;;;;;;;;;;;;;11.36;100.00;98942.41;4971232;28;20393;-86
2023/08/25 17:44:50;;;;;;;;;;;;;;;10.94;100.00;98946.59;4974811;28;19965;-85
2023/08/25 17:47:15;;;;;;;;;;;;;;;11.29;100.00;98949.00;4974749;28;20377;-86
2023/08/25 17:49:40;;;;;;;;;;;;;;;11.41;100.00;98948.28;4974595;28;20005;-85
2023/08/25 17:52:31;;;;;;;;;;;;;;;10.85;100.00;98941.81;4974690;28;19918;-85
2023/08/25 17:54:57;;;;;;;;;;;;;;;11.21;100.00;98951.25;4970744;28;19914;-85
2023/08/25 17:57:22;;;;;;;;;;;;;;;11.48;100.00;98966.47;4974487;28;19922;-84
2023/08/25 17:59:48;;;;;;;;;;;;;;;10.83;100.00;98976.41;4974363;28;19918;-85
2023/08/25 18:02:14;;;;;;;;;;;;;;;11.14;100.00;98981.72;4974240;28;19966;-84
2023/08/25 18:04:41;;;;;;;;;;;;;;;11.38;100.00;98977.63;4973179;28;19926;-85
2023/08/25 18:07:06;;;;;;;;;;;;;;;11.33;100.00;98971.75;4989314;28;19928;-84
2023/08/25 18:09:31;;;;;;;;;;;;;;;10.90;100.00;98961.00;4973132;28;19922;-85
2023/08/25 18:11:57;;;;;;;;;;;;;;;11.21;100.00;98957.41;4972929;28;19922;-85
2023/08/25 18:14:23;;;;;;;;;;;;;;;11.45;100.00;98963.06;4971025;28;19929;-85
2023/08/25 18:16:54;;;;;;;;;;;;;;;10.88;100.00;98962.84;4972712;28;19932;-94
2023/08/25 18:19:20;;;;;;;;;;;;;;;11.07;100.00;98950.28;4974157;28;19922;-85
2023/08/25 18:21:45;;;;;;;;;;;;;;;11.30;100.00;98956.00;4972866;28;20292;-85
2023/08/25 18:24:10;;;;;;;;;;;;;;;11.27;100.00;98956.19;4972176;28;19977;-85